Indianapolis International Airport Indianapolis US
ICAO: KIND
IATA: IND
Category: Large
Scheduled Services: Yes

Elevation: 797 ft
TransAlt. 18000 ft.

Airport Communications:
APP:119.3
ATIS:134.25
CLNC DEL:128.75
DEP:119.05
GND:121.8
TERRE HAUTE RDO:122.55
INDY TWR:120.9
UNICOM:122.95

KIND Zoom In..

Runways:

(A) RW 05L length 11200 ft width 150 ft
ILS 111.75 / hdg 47

(B) RW 05R length 10000 ft width 150 ft
ILS 111.15 / hdg 47

(C) RW 14 length 7280 ft width 150 ft
ILS 110.50 / hdg 137

(D) RW 23L length 10000 ft width 150 ft
ILS 111.15 / hdg 227

(E) RW 23R length 11200 ft width 150 ft
ILS 111.75 / hdg 227

(F) RW 32 length 7280 ft width 150 ft
ILS 110.50 / hdg 317

Location; KIND
Day. 24 / Time. 07.54 Zulu
* Altimeter: 30.16
* Temperature: 18° c. 64.4°f.
* Wind from: 100° Speed 07 kn.
Dewpoint: 12° c.
Visibility: 10 Statute Miles.
Clouds: Clear (automated report).

KIND 240754Z 10007KT 10SM CLR 18/12 A3016 RMK AO2 SLP208 T01830117 $


Wind From 100°
Speed 07 kn.

 
 
jpsmedia.com for Web Design SOUNDCLOUD worldairports.se 2018   terms of use